Latest Weather Observations for Mount Hotham Airport

IDV60801

Issued at 2:31 pm EDT Monday 2 March 2015 (issued every 30 minutes, with the page automatically refreshed every 10 minutes)

About weather observations | Map of weather stations | Latest weather observations for VIC | Other Formats
Station Details ID: 083055 Name: MOUNT HOTHAM AIRPORT Lat: -37.05 Lon: 147.33 Height: 1295.4 m
Data from the previous 72 hours. | See also: Recent months at Mount Hotham Airport
Date/Time
EDT
Temp
°C
App
Temp
°C
Dew
Point
Rel
Hum
%
Delta-T
°C
Wind Press
QNH
hPa
Press
MSL
hPa
Rain
since 9 am
mm
Dir
 
Spd
km/h
Gust
km/h
Spd
kts
Gust
kts
02/01:30pm 20.2 17.0 5.1 37 7.9 N 11 19 6 10 1019.0 - 0.0
02/01:00pm 20.4 18.7 8.4 46 6.7 ENE 7 15 4 8 1019.1 - 0.0
02/12:30pm 19.6 17.6 8.6 49 6.1 NNE 9 15 5 8 1019.5 - 0.0
02/12:00pm 18.1 15.6 8.4 53 5.3 ESE 11 15 6 8 1019.9 1017.3 0.0
02/11:30am 17.8 16.0 9.4 58 4.7 ESE 9 15 5 8 1019.8 - 0.0
02/11:00am 17.0 15.4 7.9 55 4.9 ESE 6 7 3 4 1020.1 - 0.0
02/10:30am 15.0 12.9 5.8 54 4.7 N 6 7 3 4 1019.9 - 0.0
02/09:00am 8.5 6.6 2.7 67 2.6 NW 2 4 1 2 1019.6 1016.9 0.0
02/07:58am 2.5 0.9 2.4 99 0.0 CALM 0 0 0 0 1019.6 - 0.0
02/07:29am 2.0 -0.4 1.9 99 0.0 NW 4 7 2 4 1019.4 - 0.0
02/07:03am 0.7 -2.0 0.6 99 0.0 NW 4 6 2 3 1019.3 - 0.0
02/07:00am 1.3 -1.3 1.2 99 0.0 NW 4 6 2 3 1019.3 - 0.0
02/06:30am 1.1 -1.5 1.0 99 0.0 NNW 4 6 2 3 1019.4 - 0.0
02/06:00am 1.5 -0.3 1.4 99 0.0 CALM 0 0 0 0 1019.3 1016.6 0.0
02/05:34am 1.3 -1.9 0.9 97 0.2 NW 7 11 4 6 1019.1 - 0.0
02/05:00am 3.3 0.4 2.7 96 0.3 NNW 7 11 4 6 1019.3 - 0.0
02/04:30am 4.1 1.6 3.5 96 0.3 NNE 6 11 3 6 1019.5 - 0.0
02/04:00am 4.6 2.2 4.5 99 0.0 NE 6 7 3 4 1019.3 - 0.0
02/03:30am 5.1 3.2 5.0 99 0.0 ENE 4 11 2 6 1019.4 - 0.0
02/03:00am 5.3 3.1 5.2 99 0.0 NE 6 7 3 4 1019.6 1016.9 0.0
02/02:30am 5.5 3.7 5.4 99 0.0 NE 4 9 2 5 1019.4 - 0.0
02/02:00am 5.1 2.6 5.0 99 0.0 NE 7 11 4 6 1019.5 - 0.0
02/01:30am 3.8 2.4 3.7 99 0.0 CALM 0 4 0 2 1019.5 - 0.0
02/12:30am 5.1 2.7 4.4 95 0.3 E 6 9 3 5 1019.5 - 0.0
02/12:00am 5.8 4.7 4.9 94 0.4 CALM 0 0 0 0 1019.0 1016.3 0.0
 
Date/Time
EDT
Temp
°C
App
Temp
°C
Dew
Point
Rel
Hum
%
Delta-T
°C
Wind Press
QNH
hPa
Press
MSL
hPa
Rain
since 9 am
mm
Dir
 
Spd
km/h
Gust
km/h
Spd
kts
Gust
kts
01/11:30pm 5.9 4.0 4.7 92 0.6 SE 4 7 2 4 1019.1 - 0.0
01/11:00pm 6.5 4.2 5.0 90 0.7 SSE 6 11 3 6 1019.0 - 0.0
01/10:30pm 6.5 3.3 5.1 91 0.7 SSE 11 17 6 9 1019.1 - 0.0
01/10:00pm 7.5 4.9 6.0 90 0.7 SE 9 15 5 8 1019.6 - 0.0
01/09:30pm 7.6 5.3 5.6 87 1.0 SSE 7 13 4 7 1019.3 - 0.0
01/09:00pm 6.8 4.9 4.8 87 0.9 SSE 4 6 2 3 1018.9 1016.2 0.0
01/08:30pm 7.7 4.8 4.7 81 1.4 S 9 15 5 8 1018.6 - 0.0
01/07:00pm 10.8 6.3 4.0 63 3.3 S 17 26 9 14 1017.8 - 0.0
01/06:30pm 11.7 7.6 4.4 61 3.6 S 15 28 8 15 1017.4 - 0.0
01/06:00pm 11.0 6.1 4.2 63 3.3 S 19 26 10 14 1017.2 1014.5 0.0
01/05:30pm 12.7 8.4 5.1 60 3.8 SSW 17 28 9 15 1016.5 - 0.0
01/05:00pm 12.0 7.7 5.4 64 3.3 S 17 24 9 13 1016.4 - 0.0
01/04:30pm 12.8 8.8 6.8 67 3.1 S 17 28 9 15 1016.1 - 0.0
01/04:00pm 12.1 7.7 6.4 68 2.9 SSW 19 28 10 15 1016.0 - 0.0
01/03:30pm 11.2 7.7 8.9 86 1.2 S 17 26 9 14 1015.9 - 0.0
01/03:00pm 9.5 6.1 9.2 98 0.2 SSW 17 26 9 14 1015.7 1013.0 0.0
01/02:30pm 9.3 5.9 9.2 99 0.1 SSW 17 22 9 12 1015.3 - 0.0
01/02:00pm 9.5 7.7 9.5 100 0.0 S 9 19 5 10 1015.2 - 0.0
01/01:30pm 8.7 5.6 8.7 100 0.0 S 15 28 8 15 1014.9 - 0.0
01/01:00pm 8.4 5.6 8.4 100 0.0 S 13 19 7 10 1014.6 - 0.0
01/12:30pm 8.3 5.0 8.2 99 0.1 S 15 24 8 13 1014.3 - 0.0
01/12:00pm 9.3 6.7 9.3 100 0.0 S 13 20 7 11 1013.8 1011.0 0.0
01/11:30am 9.5 6.9 9.5 100 0.0 S 13 20 7 11 1013.6 - 0.0
01/11:00am 9.7 7.2 9.7 100 0.0 S 13 20 7 11 1013.0 - 0.0
01/10:30am 9.9 6.7 9.8 99 0.1 SSW 17 24 9 13 1012.6 - 0.0
01/10:00am 10.5 8.2 10.3 99 0.1 S 13 19 7 10 1012.1 - 0.0
01/09:30am 11.5 10.2 11.3 99 0.1 S 9 17 5 9 1011.5 - 0.0
01/09:00am 12.7 11.8 12.5 99 0.1 SSW 9 17 5 9 1011.3 1008.4 2.0
01/08:57am 13.0 12.2 12.8 99 0.1 SSW 9 17 5 9 1011.2 - 2.0
01/08:30am 13.5 13.2 13.3 99 0.1 S 7 11 4 6 1010.9 - 2.0
01/08:00am 13.0 13.9 12.8 99 0.1 CALM 0 4 0 2 1010.6 - 2.0
01/07:30am 12.6 13.4 12.4 99 0.1 CALM 0 4 0 2 1010.1 - 2.0
01/07:00am 13.3 12.8 12.2 93 0.6 WSW 6 9 3 5 1009.5 - 2.0
01/06:30am 13.6 12.2 12.3 92 0.8 W 11 17 6 9 1009.3 - 1.8
01/06:00am 13.0 11.9 11.9 93 0.6 W 9 13 5 7 1008.5 1005.5 1.8
01/05:30am 13.0 12.0 12.4 96 0.3 NNW 9 15 5 8 1008.4 - 1.8
01/05:00am 13.0 11.8 11.7 92 0.7 N 9 13 5 7 1008.4 - 1.4
01/04:30am 12.2 10.6 11.6 96 0.3 N 11 13 6 7 1008.6 - 1.4
01/04:00am 11.7 9.2 11.1 96 0.3 N 15 19 8 10 1008.8 - 1.4
01/03:30am 12.9 11.5 9.0 77 2.1 W 6 15 3 8 1010.1 - 0.4
01/03:00am 16.7 13.3 5.9 49 5.6 W 13 19 7 10 1010.5 1007.7 0.0
01/02:30am 17.4 13.5 5.4 45 6.2 W 15 24 8 13 1010.1 - 0.0
01/02:00am 18.7 14.6 4.5 39 7.3 NW 15 24 8 13 1009.5 - 0.0
01/01:30am 18.6 14.2 4.8 40 7.1 NW 17 24 9 13 1010.0 - 0.0
01/01:00am 18.7 14.2 4.1 38 7.4 WNW 17 24 9 13 1010.1 - 0.0
01/12:30am 18.3 14.3 4.8 41 6.9 WNW 15 20 8 11 1010.2 - 0.0
01/12:00am 19.0 15.3 4.7 39 7.4 NNW 13 22 7 12 1009.5 1006.6 0.0
 
Date/Time
EDT
Temp
°C
App
Temp
°C
Dew
Point
Rel
Hum
%
Delta-T
°C
Wind Press
QNH
hPa
Press
MSL
hPa
Rain
since 9 am
mm
Dir
 
Spd
km/h
Gust
km/h
Spd
kts
Gust
kts
28/11:30pm 18.2 14.5 4.4 40 7.0 NNW 13 20 7 11 1009.5 - 0.0
28/11:00pm 17.5 14.5 4.1 41 6.8 NNW 9 17 5 9 1009.8 - 0.0
28/10:30pm 17.1 14.3 5.1 45 6.2 NNW 9 13 5 7 1010.5 - 0.0
28/10:00pm 17.8 14.4 5.7 45 6.3 NNW 13 19 7 10 1011.1 - 0.0
28/09:30pm 18.3 14.5 5.8 44 6.6 NW 15 22 8 12 1011.4 - 0.0
28/09:00pm 18.0 14.7 6.5 47 6.1 NNW 13 20 7 11 1011.4 1007.2 0.0
28/08:30pm 17.2 15.9 7.8 54 5.1 NNW 4 13 2 7 1011.5 - 0.0
28/08:00pm 18.2 15.8 7.0 48 6.0 N 9 13 5 7 1011.5 - 0.0
28/07:30pm 18.3 17.4 7.7 50 5.8 N 2 6 1 3 1011.9 - 0.0
28/07:00pm 18.3 15.4 8.0 51 5.6 N 13 20 7 11 1011.8 - 0.0
28/06:30pm 18.8 15.1 7.9 49 6.0 WNW 17 22 9 12 1012.0 - 0.0
28/06:00pm 19.7 17.2 8.1 47 6.4 NNW 11 15 6 8 1012.1 1007.9 0.0
28/05:30pm 19.4 16.4 7.5 46 6.5 NNW 13 20 7 11 1012.1 - 0.0
28/05:00pm 19.8 15.3 6.2 41 7.2 WNW 19 26 10 14 1012.3 - 0.0
28/04:30pm 21.0 17.2 5.8 37 8.1 NW 15 24 8 13 1012.2 - 0.0
28/04:00pm 21.3 16.4 5.2 35 8.5 WNW 20 28 11 15 1012.3 - 0.0
28/03:30pm 21.5 16.4 5.8 36 8.4 WNW 22 32 12 17 1012.3 - 0.0
28/03:00pm 22.8 18.2 6.6 35 8.9 NW 20 28 11 15 1012.6 1008.3 0.0
28/02:30pm 21.9 16.3 7.0 38 8.2 WNW 26 35 14 19 1012.8 - 0.0
28/02:00pm 21.0 16.6 6.5 39 7.8 NNW 19 30 10 16 1012.9 - 0.0
28/01:30pm 21.1 16.4 5.9 37 8.1 NNW 20 28 11 15 1012.9 - 0.0
28/01:00pm 20.7 16.6 6.3 39 7.7 NNW 17 22 9 12 1012.9 - 0.0
28/12:30pm 20.4 16.4 6.7 41 7.4 NNW 17 24 9 13 1013.4 - 0.0
28/12:00pm 20.4 18.2 6.0 39 7.7 N 7 15 4 8 1013.7 1009.6 0.0
28/11:30am 19.6 16.4 6.7 43 6.9 NW 13 20 7 11 1013.9 - 0.0
28/11:00am 19.7 16.6 5.4 39 7.5 NNW 11 19 6 10 1013.9 - 0.0
28/10:30am 18.9 14.2 5.0 40 7.2 NW 19 28 10 15 1013.9 - 0.0
28/10:00am 19.1 16.1 6.2 43 6.8 NNW 11 17 6 9 1013.7 - 0.0
28/09:30am 18.7 16.2 6.5 45 6.5 NW 9 19 5 10 1013.7 - 0.0
28/09:00am 17.1 14.8 5.7 47 5.9 NNW 7 7 4 4 1013.2 1009.1 0.0
28/08:30am 15.1 12.3 5.0 51 5.1 NNW 9 13 5 7 1013.1 - 0.0
28/08:00am 14.1 11.1 4.1 51 4.9 NNW 9 13 5 7 1013.1 - 0.0
28/07:30am 13.7 10.7 4.3 53 4.6 NNW 9 11 5 6 1013.0 - 0.0
28/07:00am 14.1 11.6 4.7 53 4.7 N 7 11 4 6 1012.6 - 0.0
28/06:30am 12.8 10.2 6.2 64 3.4 NW 9 15 5 8 1013.2 - 0.0
28/06:00am 13.1 10.6 4.8 57 4.1 SW 7 11 4 6 1013.2 1009.0 0.0
28/05:30am 13.4 11.0 5.3 58 4.1 NNW 7 9 4 5 1013.1 - 0.0
28/05:00am 13.5 10.9 6.1 61 3.8 N 9 15 5 8 1012.9 - 0.0
28/04:30am 12.7 10.2 6.5 66 3.2 NW 9 11 5 6 1012.9 - 0.0
28/04:00am 11.7 10.6 6.8 72 2.5 SE 2 6 1 3 1013.2 - 0.0
28/03:30am 11.9 11.3 7.6 75 2.2 CALM 0 6 0 3 1013.5 - 0.0
28/03:00am 10.6 10.1 7.7 82 1.5 CALM 0 4 0 2 1013.7 1009.5 0.0
28/02:30am 11.5 10.3 8.2 80 1.7 W 4 7 2 4 1013.9 - 0.0
28/02:00am 10.9 11.1 10.7 99 0.1 CALM 0 2 0 1 1014.0 - 0.0
28/01:35am 10.5 9.9 10.3 99 0.1 W 4 6 2 3 1014.2 - 0.0
28/01:30am 10.7 10.2 10.7 100 0.0 WNW 4 6 2 3 1014.2 - 0.0
28/01:00am 11.2 11.6 11.2 100 0.0 CALM 0 6 0 3 1014.4 - 0.0
28/12:43am 11.2 10.4 11.0 99 0.1 NNW 6 7 3 4 1014.4 - 0.0
28/12:31am 11.9 11.4 11.9 100 0.0 NNW 6 7 3 4 1014.3 - 0.0
28/12:30am 11.9 11.4 11.9 100 0.0 NNW 6 7 3 4 1014.3 - 0.0
28/12:00am 11.6 11.0 11.6 100 0.0 N 6 7 3 4 1014.4 1010.2 0.0
 
Date/Time
EDT
Temp
°C
App
Temp
°C
Dew
Point
Rel
Hum
%
Delta-T
°C
Wind Press
QNH
hPa
Press
MSL
hPa
Rain
since 9 am
mm
Dir
 
Spd
km/h
Gust
km/h
Spd
kts
Gust
kts
27/11:30pm 11.9 12.1 11.9 100 0.0 NNW 2 6 1 3 1014.5 - 0.0
27/11:14pm 11.5 11.9 11.3 99 0.1 CALM 0 0 0 0 1014.7 - 0.0
27/11:00pm 11.6 11.3 11.4 99 0.1 NW 4 4 2 2 1014.6 - 0.0
27/10:38pm 12.0 11.8 11.8 99 0.1 NW 4 4 2 2 1014.5 - 0.0
27/10:30pm 11.8 11.5 11.6 99 0.1 WNW 4 6 2 3 1014.6 - 0.0
27/10:15pm 11.5 11.2 11.3 99 0.1 NW 4 4 2 2 1014.7 - 0.0
27/10:00pm 12.5 13.2 12.3 99 0.1 CALM 0 0 0 0 1014.7 - 0.0
27/09:30pm 12.3 12.6 12.1 99 0.1 WSW 2 6 1 3 1014.7 - 0.0
27/09:00pm 13.1 12.9 12.9 99 0.1 SSW 6 9 3 5 1014.5 1010.3 0.0
27/08:30pm 14.1 14.4 13.3 95 0.5 ENE 4 7 2 4 1013.6 - 0.0
27/08:00pm 14.6 14.9 13.3 92 0.8 SE 4 7 2 4 1013.6 - 0.0
27/07:30pm 15.2 14.3 13.6 90 1.0 SSW 11 15 6 8 1014.2 - 0.0
27/07:00pm 16.8 15.4 13.5 81 2.0 SE 13 17 7 9 1013.6 - 0.0
27/06:30pm 18.8 18.0 13.0 69 3.5 ESE 9 20 5 11 1013.1 - 0.0
27/06:00pm 20.0 16.8 6.7 42 7.2 W 13 20 7 11 1013.0 1008.8 0.0
27/05:30pm 20.8 17.9 6.7 40 7.6 W 11 19 6 10 1013.0 - 0.0
27/05:00pm 21.4 19.1 9.0 45 7.0 WNW 11 22 6 12 1013.0 - 0.0
27/04:30pm 21.2 17.5 6.3 38 8.0 WNW 15 22 8 12 1013.1 - 0.0
27/04:00pm 21.3 18.3 7.5 41 7.6 SW 13 20 7 11 1013.0 - 0.0
27/03:30pm 21.2 18.2 4.3 33 8.8 SW 9 17 5 9 1012.9 - 0.0
27/03:00pm 21.1 17.7 7.7 42 7.4 WSW 15 24 8 13 1013.2 1008.9 0.0

Other Formats:

Comma delimited format used in spreadsheet applications
http://www.bom.gov.au/fwo/IDV60801/IDV60801.94905.axf

JavaScript Object Notation format (JSON) in row-major order
http://www.bom.gov.au/fwo/IDV60801/IDV60801.94905.json